METAR AND TAF INFORMATION
METAR FOR LGRX
ADDS - METARS form results

(0636 UTC 15 September 2019)
Data provider http://aviationweather.gov/metar/data/
 
METAR text: LGRX 150620Z 36014KT CAVOK 27/08 Q1020
Conditions at: LGRX (ARAXOS (CIV/AFB), GR) observed 0620 UTC 15 September 2019
Temperature: 27.0°C (81°F)
Dewpoint: 8.0°C (46°F) [RH = 30%]
Pressure (altimeter): 30.12 inches Hg (1020.0 mb)
Winds: from the N (360 degrees) at 16 MPH (14 knots; 7.2 m/s)
Visibility: 6 or more miles (10+ km)
Ceiling: ceiling and visibility are OK
Clouds: unknown
Weather: no significant weather observed at this time

METAR text: LGRX 150550Z 01013KT CAVOK 27/08 Q1020
Conditions at: LGRX (ARAXOS (CIV/AFB), GR) observed 0550 UTC 15 September 2019
Temperature: 27.0°C (81°F)
Dewpoint: 8.0°C (46°F) [RH = 30%]
Pressure (altimeter): 30.12 inches Hg (1020.0 mb)
Winds: from the N (10 degrees) at 15 MPH (13 knots; 6.7 m/s)
Visibility: 6 or more miles (10+ km)
Ceiling: ceiling and visibility are OK
Clouds: unknown
Weather: no significant weather observed at this time

Forecast for: LGRX (ARAXOS (CIV/AFB), GR)
Text: TAF LGRX 150500Z 1506/1515 04012KT 9999 FEW025
Forecast period: 0600 to 1500 UTC 15 September 2019
Forecast type: FROM: standard forecast or significant change
Winds: from the NE (40 degrees) at 14 MPH (12 knots; 6.2 m/s)
Visibility: 6 or more miles 10+ km)
Ceiling: at least 12,000 feet AGL
Clouds: few clouds at 2500 feet AGL
Weather: no significant weather forecast for this period

 ΧΑΡΤΗΣ ΑΕΡΟΔΡΟΜΙΟΥ

 RUNWAY INFORMATION
Διάδρομος 18L Runway length 10999 ft Runway width 70 ft
Runway elevation 37 ft Runway displaced threshold 80 ft Runway heading 183
Διάδρομος 36R Runway length 10999 ft Runway width 70 ft
Runway elevation 46 ft Runway displaced threshold 80 ft Runway heading 3
Διάδρομος 18R Runway length 10997 ft Runway width 148 ft
Runway elevation 37 ft Runway displaced threshold 653 ft Runway heading 183
Διάδρομος 36L Runway length 10997 ft Runway width 148 ft
Runway elevation 46 ft Runway displaced threshold 669 ft Runway heading 3

 ΣΥΧΝΟΤΗΤΕΣ ΑΕΡΟΔΡΟΜΙΟΥ
Τύπος A/G Όνομα RDO Συχνότητα 563.7 MHZ
Τύπος APP Όνομα ANDRAVIDA Συχνότητα 120.65 MHZ
Τύπος POST Όνομα COMD POST Συχνότητα 33.775 MHZ
Τύπος TWR Όνομα TWR Συχνότητα 122.1 MHZ

 AIRPORT NEAR NAVIGATION AIDS
Τύπος VOR-DME Όνομα Araxos Συχνότητα 112700 KHZ
Τύπος TACAN Όνομα Araxos Συχνότητα 112400 KHZ



Hellenic Air Force Virtual - All rights reserved 2019 - Powered by VAM